Date,TemperatureHighF,TemperatureAvgF,TemperatureLowF,DewpointHighF,DewpointAvgF,DewpointLowF,HumidityHigh,HumidityAvg,HumidityLow,PressureMaxIn,PressureMinIn,WindSpeedMaxMPH,WindSpeedAvgMPH,GustSpeedMaxMPH,PrecipitationSumIn
2013-4-1,58.0,49.9,46.0,48.0,46.4,45.0,100,88,65,0.00,40.00,18,12,31,0.00
2013-4-2,58.0,49.8,45.0,46.0,44.4,43.0,100,83,59,0.00,40.00,13,11,27,0.00
2013-4-3,62.0,53.0,43.0,46.0,43.9,42.0,99,73,49,0.00,40.00,10,6,19,0.00
2013-4-4,53.0,48.6,45.0,49.0,45.8,43.0,100,91,73,0.00,40.00,14,6,29,0.35
2013-4-5,50.0,44.5,41.0,50.0,44.5,41.0,100,100,100,0.00,40.00,17,11,29,0.53
2013-4-6,44.0,39.7,35.0,44.0,39.7,35.0,100,100,97,0.00,40.00,16,9,30,0.72
2013-4-7,41.0,36.3,32.0,41.0,36.3,32.0,100,100,100,0.00,40.00,21,11,42,0.68
2013-4-8,45.0,37.1,32.0,39.0,35.4,32.0,100,94,76,0.00,40.00,15,11,26,0.14
2013-4-9,55.0,43.0,33.0,41.0,36.1,33.0,100,79,49,0.00,40.00,10,7,20,0.00
2013-4-10,48.0,44.7,37.0,48.0,40.8,32.0,100,86,60,0.00,40.00,17,12,33,0.15
2013-4-11,47.0,39.5,35.0,38.0,35.3,32.0,97,86,71,0.00,40.00,19,11,32,0.01
2013-4-12,50.0,39.5,33.0,38.0,34.9,31.0,100,85,59,0.00,40.00,17,8,32,0.08
2013-4-13,40.0,33.7,28.0,38.0,32.7,28.0,100,96,81,0.00,40.00,17,12,32,0.18
2013-4-14,45.0,36.5,31.0,36.0,33.0,31.0,100,88,62,0.00,40.00,12,8,21,0.01
2013-4-15,43.0,35.9,31.0,35.0,32.6,30.0,100,88,70,0.00,40.00,10,5,18,0.00
2013-4-16,47.0,39.7,33.0,35.0,32.4,29.0,100,77,49,0.00,40.00,7,4,13,0.00
2013-4-17,52.0,41.0,32.0,37.0,30.0,22.0,94,67,42,0.00,40.00,12,6,21,0.00
2013-4-18,51.0,42.3,37.0,44.0,38.4,35.0,100,87,63,0.00,40.00,15,10,25,0.00
2013-4-19,49.0,44.3,42.0,48.0,43.8,42.0,100,98,90,0.00,40.00,17,13,32,0.16
2013-4-20,50.0,43.3,39.0,42.0,39.9,38.0,100,88,64,0.00,40.00,14,11,25,0.09
2013-4-21,49.0,41.6,38.0,41.0,38.6,36.0,100,90,71,0.00,40.00,18,10,29,0.03
2013-4-22,55.0,44.5,34.0,38.0,28.5,20.0,100,60,29,0.00,40.00,8,5,21,0.03
2013-4-23,62.0,48.1,35.0,31.0,24.4,19.0,59,41,22,0.00,40.00,8,4,15,0.00
2013-4-24,66.0,54.2,41.0,34.0,27.2,17.0,50,36,24,0.00,40.00,9,5,15,0.00
2013-4-25,70.0,59.2,50.0,41.0,35.1,28.0,63,41,28,0.00,40.00,14,8,23,0.00
2013-4-26,77.0,62.2,51.0,42.0,34.4,27.0,67,40,16,0.00,40.00,11,8,20,0.00
2013-4-27,66.0,57.2,49.0,41.0,33.4,28.0,72,43,25,0.00,40.00,14,11,29,0.00
2013-4-28,58.0,48.1,43.0,44.0,41.4,39.0,100,79,51,0.00,40.00,14,11,29,0.00
2013-4-29,47.0,41.9,38.0,42.0,38.0,30.0,100,88,54,0.00,40.00,21,13,39,0.23
2013-4-30,50.0,41.6,33.0,31.0,29.1,28.0,82,63,44,0.00,40.00,13,8,22,0.01